Time;durP1;ratioP1;P1;durP2;ratioP2;P2;SDS_P1;SDS_P2;PMS_P1;PMS_P2;Temp;Humidity;BMP_temperature;BMP_pressure;BME280_temperature;BME280_humidity;BME280_pressure;Samples;Min_cycle;Max_cycle;Signal;HPM_P1;HPM_P2
2023/07/25 00:00:33;;;;;;;1.63;1.10;;;;;;;26.51;63.45;99014.97;5112535;28;20198;-64
2023/07/25 00:03:00;;;;;;;4.47;1.27;;;;;;;26.46;64.08;99008.53;5112231;28;20608;-64
2023/07/25 00:05:26;;;;;;;1.57;1.33;;;;;;;26.41;64.96;99010.78;5112589;27;20207;-64
2023/07/25 00:07:53;;;;;;;1.80;1.03;;;;;;;26.37;65.15;99015.53;5112370;28;20198;-64
2023/07/25 00:10:21;;;;;;;1.47;1.10;;;;;;;26.33;66.40;99008.13;5112865;28;20202;-64
2023/07/25 00:12:52;;;;;;;1.57;1.20;;;;;;;26.31;66.29;99002.19;5111987;28;20194;-64
2023/07/25 00:15:19;;;;;;;1.63;1.20;;;;;;;26.27;66.00;99014.00;5112786;28;20205;-64
2023/07/25 00:17:46;;;;;;;2.73;1.43;;;;;;;26.19;65.75;99016.56;5112325;28;20201;-64
2023/07/25 00:20:12;;;;;;;2.50;1.03;;;;;;;26.07;66.65;99001.00;5112687;28;20200;-64
2023/07/25 00:22:39;;;;;;;1.63;0.90;;;;;;;26.08;66.60;99005.28;5112041;28;20724;-64
2023/07/25 00:25:07;;;;;;;1.20;1.03;;;;;;;26.05;66.75;99010.03;5112182;28;20214;-64
2023/07/25 00:27:35;;;;;;;1.03;0.60;;;;;;;25.80;66.00;98974.88;5112295;28;20222;-65
2023/07/25 00:30:04;;;;;;;2.57;1.20;;;;;;;25.90;65.40;99009.75;5112020;28;20194;-64
2023/07/25 00:32:30;;;;;;;2.17;1.60;;;;;;;25.84;65.60;99012.19;5112308;28;20199;-64
2023/07/25 00:34:57;;;;;;;1.60;1.20;;;;;;;25.79;65.36;99014.41;5111987;28;20685;-64
2023/07/25 00:37:24;;;;;;;2.13;1.10;;;;;;;25.78;65.82;99012.78;5111976;28;20199;-64
2023/07/25 00:39:53;;;;;;;1.80;0.90;;;;;;;25.80;66.17;99016.91;5112227;28;20199;-64
2023/07/25 00:42:20;;;;;;;1.90;0.80;;;;;;;25.77;65.82;99017.22;5111892;28;20199;-65
2023/07/25 00:44:48;;;;;;;0.80;0.80;;;;;;;25.75;66.28;99024.41;5111543;28;20268;-64
2023/07/25 00:47:15;;;;;;;2.37;1.13;;;;;;;25.78;66.41;99029.38;5112007;28;20654;-64
2023/07/25 00:49:43;;;;;;;0.87;0.87;;;;;;;25.68;65.64;99012.88;5111933;28;20638;-64
2023/07/25 00:52:10;;;;;;;1.33;1.30;;;;;;;25.82;65.43;99035.94;5111539;28;20248;-64
2023/07/25 00:54:39;;;;;;;0.80;0.80;;;;;;;25.81;64.81;99029.06;5111848;28;20198;-64
2023/07/25 00:57:06;;;;;;;2.00;1.33;;;;;;;25.80;64.24;99032.66;5111160;28;20282;-64
2023/07/25 00:59:33;;;;;;;1.03;1.00;;;;;;;25.77;65.35;99024.25;5111749;28;20199;-64
2023/07/25 01:02:01;;;;;;;1.67;1.10;;;;;;;25.71;65.14;99020.44;5111480;28;20209;-64
2023/07/25 01:04:28;;;;;;;1.67;1.00;;;;;;;25.67;65.51;99019.09;5111303;28;20194;-64
2023/07/25 01:06:55;;;;;;;2.13;0.80;;;;;;;25.61;64.75;99005.72;5111921;28;20225;-64
2023/07/25 01:09:35;;;;;;;0.97;0.97;;;;;;;25.52;65.32;98995.19;5111640;28;20194;-64
2023/07/25 01:12:02;;;;;;;1.00;0.97;;;;;;;25.55;65.29;99007.16;5111524;28;20540;-64
2023/07/25 01:14:31;;;;;;;4.23;1.20;;;;;;;25.60;64.97;99025.91;5111432;28;20195;-64
2023/07/25 01:16:59;;;;;;;4.07;1.60;;;;;;;25.58;65.17;99030.50;5111350;28;20297;-64
2023/07/25 01:19:30;;;;;;;1.17;1.17;;;;;;;25.55;64.67;99025.53;5111097;28;20190;-64
2023/07/25 01:21:58;;;;;;;1.77;0.93;;;;;;;25.54;65.30;99022.09;5110837;28;20237;-64
2023/07/25 01:24:26;;;;;;;3.33;1.20;;;;;;;25.54;65.30;99016.00;5111380;28;20238;-64
2023/07/25 01:26:53;;;;;;;0.97;0.97;;;;;;;25.46;65.69;99023.78;5111477;28;20218;-64
2023/07/25 01:29:20;;;;;;;3.10;1.27;;;;;;;25.40;65.85;99019.94;5111236;28;20225;-64
2023/07/25 01:31:46;;;;;;;0.80;0.80;;;;;;;25.41;65.47;99015.53;5111077;28;20191;-63
2023/07/25 01:34:13;;;;;;;0.77;0.70;;;;;;;25.37;66.09;99015.00;5110808;28;20198;-64
2023/07/25 01:36:40;;;;;;;2.50;1.13;;;;;;;25.36;65.65;99013.38;5110973;28;20194;-64
2023/07/25 01:39:07;;;;;;;3.70;1.10;;;;;;;25.36;65.76;99021.25;5111418;28;20195;-64
2023/07/25 01:41:35;;;;;;;1.67;1.07;;;;;;;25.36;66.04;99029.09;5111078;28;20194;-63
2023/07/25 01:44:02;;;;;;;5.63;1.00;;;;;;;25.32;66.27;99025.13;5111386;28;20662;-64
2023/07/25 01:46:29;;;;;;;1.00;0.83;;;;;;;25.30;66.32;99023.63;5111163;28;20215;-64
2023/07/25 01:48:55;;;;;;;2.07;1.10;;;;;;;25.30;66.09;99028.88;5111295;28;20206;-64
2023/07/25 01:51:22;;;;;;;1.90;0.90;;;;;;;25.33;66.96;99031.19;5110734;28;20201;-64
2023/07/25 01:53:50;;;;;;;2.37;1.17;;;;;;;25.30;67.16;99019.19;5110700;28;20255;-64
2023/07/25 01:56:17;;;;;;;2.43;1.00;;;;;;;25.34;67.27;99024.97;5111495;28;20254;-64
2023/07/25 01:58:45;;;;;;;3.53;0.90;;;;;;;25.34;66.74;99019.72;5111120;28;20206;-64
2023/07/25 02:01:12;;;;;;;2.40;0.97;;;;;;;25.33;66.93;99024.13;5111023;28;20198;-64
2023/07/25 02:03:39;;;;;;;0.93;0.87;;;;;;;25.31;66.96;99026.09;5110453;28;20195;-63
2023/07/25 02:06:06;;;;;;;1.63;1.03;;;;;;;25.21;67.63;99019.25;5110945;28;20217;-64
2023/07/25 02:08:33;;;;;;;0.90;0.90;;;;;;;25.23;68.36;99033.88;5110919;28;20201;-64
2023/07/25 02:10:59;;;;;;;1.60;1.50;;;;;;;25.19;68.42;99036.94;5110801;28;20201;-64
2023/07/25 02:13:26;;;;;;;3.30;1.00;;;;;;;25.13;68.71;99038.38;5110603;28;20210;-64
2023/07/25 02:15:54;;;;;;;2.23;1.30;;;;;;;25.12;68.30;99039.31;5110953;28;20187;-64
2023/07/25 02:18:21;;;;;;;1.37;1.20;;;;;;;24.99;68.41;99021.31;5111022;28;20195;-64
2023/07/25 02:20:48;;;;;;;1.70;0.87;;;;;;;25.07;69.13;99036.34;5110639;28;20617;-64
2023/07/25 02:23:15;;;;;;;2.10;1.73;;;;;;;25.02;68.70;99036.75;5108689;28;20757;-64
2023/07/25 02:25:41;;;;;;;2.33;1.53;;;;;;;25.03;68.32;99038.41;5110796;28;20206;-63
2023/07/25 02:28:08;;;;;;;5.63;1.33;;;;;;;24.88;68.85;99024.13;5108284;28;20222;-64
2023/07/25 02:30:35;;;;;;;0.67;0.67;;;;;;;24.94;68.98;99033.22;5110878;28;20202;-64
2023/07/25 02:33:03;;;;;;;0.80;0.70;;;;;;;24.90;68.99;99024.81;5110242;28;20195;-64
2023/07/25 02:35:30;;;;;;;0.90;0.90;;;;;;;24.88;68.61;99039.06;5110328;28;20579;-65
2023/07/25 02:37:57;;;;;;;1.63;0.80;;;;;;;24.80;69.73;99033.66;5110550;28;20207;-64
2023/07/25 02:40:23;;;;;;;1.40;1.30;;;;;;;24.75;70.10;99033.28;5110533;28;20202;-64
2023/07/25 02:42:50;;;;;;;1.33;1.10;;;;;;;24.72;69.79;99034.38;5110548;28;20281;-64
2023/07/25 02:45:17;;;;;;;2.70;1.07;;;;;;;24.64;70.56;99028.22;5110300;28;20210;-64
2023/07/25 02:47:44;;;;;;;1.93;1.00;;;;;;;24.64;71.01;99047.38;5113962;28;20555;-64
2023/07/25 02:50:12;;;;;;;3.20;1.50;;;;;;;24.61;70.85;99045.06;5114167;28;20195;-64
2023/07/25 02:52:39;;;;;;;1.80;1.07;;;;;;;24.49;71.44;99031.28;5114064;28;20203;-64
2023/07/25 02:55:06;;;;;;;1.80;1.57;;;;;;;24.42;70.95;99032.84;5113875;28;20202;-64
2023/07/25 02:57:33;;;;;;;0.80;0.80;;;;;;;24.38;71.62;99041.13;5113204;28;20199;-64
2023/07/25 03:00:00;;;;;;;1.13;1.07;;;;;;;24.33;70.61;99040.75;5113898;28;20195;-64
2023/07/25 03:02:27;;;;;;;3.07;1.40;;;;;;;24.30;70.87;99043.59;5113775;28;20251;-64
2023/07/25 03:04:54;;;;;;;2.17;1.50;;;;;;;24.29;71.71;99052.47;5113645;28;20198;-64
2023/07/25 03:07:22;;;;;;;1.23;0.87;;;;;;;24.26;71.68;99056.19;5113738;28;20252;-64
2023/07/25 03:09:49;;;;;;;1.33;0.97;;;;;;;24.17;70.57;99043.13;5113845;28;20262;-64
2023/07/25 03:12:15;;;;;;;1.60;1.40;;;;;;;24.22;70.47;99051.34;5113466;28;20199;-64
2023/07/25 03:14:42;;;;;;;2.20;1.30;;;;;;;24.22;70.43;99054.81;5113514;28;20201;-64
2023/07/25 03:17:09;;;;;;;1.57;0.80;;;;;;;24.23;70.60;99058.25;5113471;28;20194;-64
2023/07/25 03:19:36;;;;;;;4.70;1.13;;;;;;;24.17;71.09;99054.38;5113506;28;20194;-64
2023/07/25 03:22:02;;;;;;;1.00;1.00;;;;;;;24.21;70.87;99061.00;5113601;28;20202;-64
2023/07/25 03:24:31;;;;;;;4.23;1.13;;;;;;;24.23;70.49;99059.09;5113287;28;20694;-64
2023/07/25 03:26:57;;;;;;;1.30;1.23;;;;;;;24.25;70.66;99061.56;5113680;27;20226;-63
2023/07/25 03:29:24;;;;;;;1.33;1.27;;;;;;;24.24;70.98;99062.50;5113523;28;20602;-64
2023/07/25 03:31:51;;;;;;;1.17;1.07;;;;;;;24.14;70.54;99059.91;5112899;28;20202;-64
2023/07/25 03:34:18;;;;;;;6.60;1.23;;;;;;;24.20;70.42;99058.53;5111728;28;20202;-64
2023/07/25 03:36:44;;;;;;;1.43;1.00;;;;;;;24.23;71.01;99066.13;5112852;28;20198;-64
2023/07/25 03:39:11;;;;;;;1.07;1.07;;;;;;;24.25;71.35;99061.56;5113405;28;20632;-63
2023/07/25 03:41:39;;;;;;;5.13;1.27;;;;;;;24.25;70.86;99062.38;5112800;28;20198;-64
2023/07/25 03:44:06;;;;;;;2.23;1.17;;;;;;;24.23;71.64;99055.66;5112152;28;20759;-64
2023/07/25 03:46:33;;;;;;;3.30;1.00;;;;;;;24.17;71.39;99048.34;5113005;28;20211;-64
2023/07/25 03:49:00;;;;;;;1.80;1.00;;;;;;;24.23;72.17;99055.66;5113280;28;20198;-64
2023/07/25 03:51:26;;;;;;;1.20;1.20;;;;;;;24.24;72.20;99049.41;5113062;28;20191;-64
2023/07/25 03:53:53;;;;;;;1.37;0.97;;;;;;;24.19;71.18;99046.41;5112230;28;20202;-64
2023/07/25 03:56:20;;;;;;;1.97;1.17;;;;;;;24.19;72.12;99047.25;5111473;28;20544;-64
2023/07/25 03:58:48;;;;;;;3.17;1.10;;;;;;;24.24;71.87;99054.66;5111268;28;20202;-64
2023/07/25 04:01:15;;;;;;;1.17;1.10;;;;;;;24.31;73.66;99050.50;5112771;28;20202;-64
2023/07/25 04:03:41;;;;;;;1.67;1.57;;;;;;;24.39;73.54;99058.50;5111989;28;20617;-64
2023/07/25 04:06:08;;;;;;;2.37;2.27;;;;;;;24.46;74.01;99055.16;5112383;28;20685;-64
2023/07/25 04:08:35;;;;;;;1.80;1.20;;;;;;;24.49;72.77;99056.69;5112742;28;20670;-64
2023/07/25 04:11:02;;;;;;;3.47;1.10;;;;;;;24.53;71.24;99052.78;5112715;28;20194;-64
2023/07/25 04:13:29;;;;;;;1.40;1.30;;;;;;;24.52;71.04;99038.84;5112648;28;20202;-64
2023/07/25 04:15:57;;;;;;;1.40;1.00;;;;;;;24.53;71.61;99034.44;5112614;28;20195;-64
2023/07/25 04:18:24;;;;;;;1.80;1.17;;;;;;;24.64;71.85;99057.03;5112371;28;20207;-64
2023/07/25 04:20:50;;;;;;;1.70;0.87;;;;;;;24.74;71.72;99057.84;5112449;28;20205;-64
2023/07/25 04:23:17;;;;;;;0.60;0.60;;;;;;;24.87;72.47;99056.59;5112493;28;20206;-64
2023/07/25 04:25:44;;;;;;;0.67;0.67;;;;;;;24.97;73.03;99051.28;5112483;28;20214;-64
2023/07/25 04:28:11;;;;;;;1.70;0.90;;;;;;;25.00;72.74;99049.19;5112069;28;20262;-63
2023/07/25 04:30:37;;;;;;;0.80;0.80;;;;;;;25.13;70.94;99063.78;5112036;28;20209;-64
2023/07/25 04:33:06;;;;;;;0.80;0.80;;;;;;;25.20;71.53;99052.56;5110088;28;20209;-64
2023/07/25 04:35:33;;;;;;;4.00;1.17;;;;;;;25.39;71.34;99054.22;5112296;28;20195;-64
2023/07/25 04:37:59;;;;;;;1.07;1.07;;;;;;;25.53;71.83;99067.69;5111853;28;20206;-64
2023/07/25 04:40:27;;;;;;;0.87;0.87;;;;;;;25.70;71.97;99073.09;5111941;28;20201;-64
2023/07/25 04:42:54;;;;;;;4.40;1.20;;;;;;;25.85;72.31;99069.78;5111754;28;20209;-64
2023/07/25 04:45:21;;;;;;;1.10;1.10;;;;;;;26.00;71.36;99055.16;5111993;28;20198;-64
2023/07/25 04:47:47;;;;;;;0.93;0.93;;;;;;;26.18;69.88;99064.81;5111740;28;20299;-65
2023/07/25 04:50:16;;;;;;;1.43;1.33;;;;;;;26.33;68.68;99061.50;5110847;28;20212;-64
2023/07/25 04:52:42;;;;;;;1.17;1.03;;;;;;;26.47;68.74;99053.03;5110818;28;20205;-65
2023/07/25 04:55:11;;;;;;;1.43;1.30;;;;;;;26.46;67.11;99045.31;5111753;27;20199;-67
2023/07/25 04:57:38;;;;;;;2.33;0.90;;;;;;;26.61;68.86;99043.75;5109142;28;20685;-65
2023/07/25 05:00:06;;;;;;;1.03;1.03;;;;;;;26.78;70.25;99056.03;5110679;28;20252;-65
2023/07/25 05:02:33;;;;;;;1.63;0.70;;;;;;;26.91;69.14;99056.44;5109170;28;20195;-65
2023/07/25 05:05:00;;;;;;;1.57;1.47;;;;;;;27.07;69.46;99056.50;5110656;28;20195;-64
2023/07/25 05:07:29;;;;;;;0.80;0.80;;;;;;;27.21;69.35;99055.06;5109618;28;20210;-66
2023/07/25 05:09:55;;;;;;;2.40;0.87;;;;;;;27.32;69.30;99059.19;5110771;28;20202;-66
2023/07/25 05:12:22;;;;;;;1.83;1.37;;;;;;;27.35;69.51;99058.88;5110973;28;20195;-66
2023/07/25 05:14:49;;;;;;;1.33;1.07;;;;;;;27.30;70.88;99067.28;5111851;28;20202;-66
2023/07/25 05:17:16;;;;;;;3.70;1.00;;;;;;;27.36;72.03;99069.25;5111159;28;20661;-66
2023/07/25 05:19:42;;;;;;;0.70;0.70;;;;;;;27.32;72.32;99057.41;5111172;28;20681;-66
2023/07/25 05:22:09;;;;;;;0.90;0.77;;;;;;;27.51;74.15;99064.22;5111619;28;20248;-66
2023/07/25 05:24:37;;;;;;;1.67;1.10;;;;;;;27.74;71.31;99067.06;5111486;28;20194;-66
2023/07/25 05:27:04;;;;;;;1.37;0.87;;;;;;;27.77;70.42;99070.19;5111499;28;20214;-66
2023/07/25 05:29:33;;;;;;;0.70;0.70;;;;;;;27.82;70.74;99072.34;5111663;28;20590;-66
2023/07/25 05:32:00;;;;;;;0.90;0.90;;;;;;;27.86;69.13;99069.19;5111249;28;20199;-66
2023/07/25 05:34:26;;;;;;;0.70;0.70;;;;;;;27.81;70.72;99066.25;5109659;28;20202;-66
2023/07/25 05:36:53;;;;;;;1.80;1.10;;;;;;;27.79;70.83;99056.88;5108980;28;20205;-67
2023/07/25 05:39:20;;;;;;;0.93;0.93;;;;;;;27.98;70.87;99057.34;5109776;28;20206;-71
2023/07/25 05:41:48;;;;;;;1.07;0.97;;;;;;;28.03;69.61;99064.75;5108137;28;20243;-66
2023/07/25 05:44:15;;;;;;;2.77;1.10;;;;;;;28.13;69.52;99061.00;5108633;28;20198;-67
2023/07/25 05:46:43;;;;;;;2.57;1.00;;;;;;;28.34;69.36;99063.09;5107201;28;20222;-66
2023/07/25 05:49:10;;;;;;;0.70;0.70;;;;;;;28.41;68.68;99031.63;5109084;28;20199;-64
2023/07/25 05:51:37;;;;;;;1.00;1.00;;;;;;;28.61;68.39;99059.28;5108711;28;20256;-64
2023/07/25 05:54:03;;;;;;;0.70;0.70;;;;;;;28.58;67.58;99070.16;5107838;28;20203;-67
2023/07/25 05:56:30;;;;;;;0.77;0.77;;;;;;;28.79;68.48;99056.47;5109494;28;20247;-66
2023/07/25 05:58:58;;;;;;;1.47;1.37;;;;;;;29.07;69.32;99045.28;5108747;28;20206;-65
2023/07/25 06:01:25;;;;;;;1.50;0.80;;;;;;;29.37;65.91;99056.06;5108412;28;20209;-65
2023/07/25 06:03:52;;;;;;;0.88;0.80;;;;;;;29.67;65.70;99047.25;5108685;28;20202;-65
2023/07/25 06:06:18;;;;;;;0.82;0.80;;;;;;;30.02;63.31;99054.59;5108988;28;20218;-64
2023/07/25 06:08:45;;;;;;;0.88;0.88;;;;;;;30.25;62.06;99045.81;5108782;28;20206;-65
2023/07/25 06:11:12;;;;;;;0.63;0.63;;;;;;;30.36;62.89;99053.31;5109002;28;20210;-65
2023/07/25 06:13:39;;;;;;;4.00;1.30;;;;;;;30.40;61.24;99049.34;5107284;28;20206;-63
2023/07/25 06:16:07;;;;;;;0.90;0.90;;;;;;;30.40;60.52;99044.88;5108241;28;20206;-63
2023/07/25 06:18:34;;;;;;;1.33;1.25;;;;;;;30.53;60.32;99033.66;5109541;28;20202;-64
2023/07/25 06:21:00;;;;;;;0.70;0.70;;;;;;;30.75;61.54;99038.03;5110968;28;20605;-65
2023/07/25 06:23:27;;;;;;;1.38;0.80;;;;;;;30.95;62.62;99039.16;5113878;28;20610;-66
2023/07/25 06:25:54;;;;;;;1.48;0.90;;;;;;;30.96;60.11;99029.38;5113140;28;20203;-66
2023/07/25 06:28:21;;;;;;;0.95;0.95;;;;;;;31.16;58.89;99025.97;5113650;28;20230;-64
2023/07/25 06:30:47;;;;;;;0.82;0.82;;;;;;;31.38;58.34;99023.31;5113173;28;20206;-65
2023/07/25 06:33:16;;;;;;;0.90;0.90;;;;;;;31.53;57.26;99024.97;5113705;28;20213;-65
2023/07/25 06:35:42;;;;;;;1.25;1.05;;;;;;;31.71;57.19;99029.81;5112714;28;20199;-65
2023/07/25 06:38:09;;;;;;;1.00;1.00;;;;;;;31.77;56.55;99023.75;5113674;28;20194;-65
2023/07/25 06:40:36;;;;;;;1.02;1.02;;;;;;;31.93;56.40;99033.25;5113241;28;20202;-65
2023/07/25 06:43:03;;;;;;;0.85;0.85;;;;;;;31.87;54.87;99024.25;5113678;28;20202;-64
2023/07/25 06:45:29;;;;;;;1.35;1.25;;;;;;;31.97;54.79;99014.13;5112860;28;20554;-65
2023/07/25 06:47:56;;;;;;;2.22;1.15;;;;;;;31.95;53.91;99018.81;5111318;27;20586;-65
2023/07/25 06:50:24;;;;;;;0.90;0.90;;;;;;;31.99;54.35;99012.09;5113291;28;20658;-64
2023/07/25 06:52:51;;;;;;;1.13;1.02;;;;;;;32.10;54.21;99008.97;5112797;28;20212;-65
2023/07/25 06:55:19;;;;;;;1.05;1.00;;;;;;;32.24;52.56;99005.41;5113120;28;20229;-65
2023/07/25 06:57:46;;;;;;;3.40;1.33;;;;;;;32.34;52.12;98993.63;5112295;28;20285;-64
2023/07/25 07:00:13;;;;;;;1.05;1.00;;;;;;;32.34;52.72;98996.28;5112678;28;20198;-64
2023/07/25 07:02:40;;;;;;;1.05;1.00;;;;;;;32.41;51.03;98991.81;5111728;28;20277;-65
2023/07/25 07:05:07;;;;;;;1.88;1.27;;;;;;;32.23;50.83;98998.44;5111398;28;20290;-66
2023/07/25 07:07:35;;;;;;;0.98;0.98;;;;;;;32.37;51.52;98998.53;5111465;27;20735;-65
2023/07/25 07:10:02;;;;;;;2.30;1.02;;;;;;;32.69;50.89;98992.59;5112800;28;20211;-64
2023/07/25 07:12:29;;;;;;;1.30;1.20;;;;;;;33.01;54.38;98991.91;5112552;28;20201;-65
2023/07/25 07:14:56;;;;;;;1.85;1.45;;;;;;;33.00;49.77;98990.28;5112178;28;20207;-64
2023/07/25 07:17:23;;;;;;;1.70;1.35;;;;;;;33.00;48.13;98995.59;5113052;28;20195;-65
2023/07/25 07:19:49;;;;;;;0.93;0.93;;;;;;;33.19;47.93;98997.50;5112376;28;20274;-65
2023/07/25 07:22:16;;;;;;;3.80;2.40;;;;;;;33.43;50.51;98990.00;5112095;27;20651;-65
2023/07/25 07:24:44;;;;;;;3.08;1.70;;;;;;;33.74;49.09;98987.59;5112421;27;20194;-65
2023/07/25 07:27:11;;;;;;;1.70;1.60;;;;;;;33.81;49.17;98988.41;5111534;27;20226;-65
2023/07/25 07:29:38;;;;;;;1.17;1.17;;;;;;;33.69;48.15;98990.88;5107795;28;20268;-65
2023/07/25 07:32:05;;;;;;;1.58;1.05;;;;;;;33.73;50.04;98970.03;5110810;27;20207;-65
2023/07/25 07:34:32;;;;;;;1.40;1.33;;;;;;;33.88;49.29;98973.28;5110681;28;20206;-65
2023/07/25 07:36:59;;;;;;;3.67;1.42;;;;;;;34.03;47.66;98963.22;5112258;27;20203;-63
2023/07/25 07:39:26;;;;;;;1.20;1.10;;;;;;;34.29;46.67;98965.06;5122657;27;20631;-63
2023/07/25 07:41:55;;;;;;;1.23;0.75;;;;;;;34.59;47.59;98966.22;5113700;27;20195;-63
2023/07/25 07:44:21;;;;;;;3.60;1.02;;;;;;;34.75;46.77;98956.94;5113558;28;20206;-63
2023/07/25 07:46:48;;;;;;;1.90;1.77;;;;;;;34.87;45.44;98952.59;5110296;28;21015;-62
2023/07/25 07:49:15;;;;;;;2.00;1.30;;;;;;;34.98;44.42;98953.75;5113106;28;20228;-63
2023/07/25 07:51:42;;;;;;;4.65;1.23;;;;;;;35.00;45.05;98952.50;5113030;28;20199;-63
2023/07/25 07:54:08;;;;;;;2.05;1.27;;;;;;;35.19;45.36;98956.13;5113341;28;20202;-63
2023/07/25 07:56:35;;;;;;;1.30;1.00;;;;;;;35.33;44.09;98957.66;5112857;28;20199;-63
2023/07/25 07:59:03;;;;;;;2.10;1.13;;;;;;;35.36;43.58;98953.75;5113103;28;20217;-63
2023/07/25 08:01:30;;;;;;;1.83;1.13;;;;;;;35.13;42.11;98947.13;5113406;28;20693;-63
2023/07/25 08:03:57;;;;;;;1.30;1.00;;;;;;;35.37;42.29;98937.56;5113302;28;20696;-65
2023/07/25 08:06:24;;;;;;;1.55;1.13;;;;;;;35.22;42.71;98935.19;5113575;28;20203;-64
2023/07/25 08:08:50;;;;;;;1.35;1.25;;;;;;;35.20;42.46;98921.28;5112842;28;20671;-65
2023/07/25 08:11:17;;;;;;;1.60;1.10;;;;;;;35.19;43.28;98924.97;5111663;28;20194;-65
2023/07/25 08:13:44;;;;;;;1.13;1.13;;;;;;;35.06;43.00;98919.69;5112131;28;20198;-64
2023/07/25 08:16:12;;;;;;;1.10;1.10;;;;;;;35.38;46.42;98922.38;5112893;28;20198;-65
2023/07/25 08:18:39;;;;;;;1.02;0.93;;;;;;;35.69;42.75;98914.34;5112996;28;20202;-65
2023/07/25 08:21:06;;;;;;;1.67;1.10;;;;;;;35.82;42.86;98903.56;5113164;28;20194;-65
2023/07/25 08:23:32;;;;;;;1.33;1.23;;;;;;;35.60;40.64;98913.81;5112956;28;20191;-65
2023/07/25 08:25:59;;;;;;;1.98;1.00;;;;;;;35.77;41.62;98914.06;5109816;27;20263;-66
2023/07/25 08:28:26;;;;;;;1.33;1.20;;;;;;;35.88;41.75;98909.84;5109745;27;20233;-64
2023/07/25 08:30:59;;;;;;;1.40;1.30;;;;;;;36.11;41.50;98902.06;5114265;27;20197;-64
2023/07/25 08:33:31;;;;;;;0.90;0.90;;;;;;;35.97;40.41;98896.00;5112440;28;20234;-64
2023/07/25 08:35:58;;;;;;;1.27;0.98;;;;;;;35.73;41.40;98896.88;5112640;28;20710;-64
2023/07/25 08:38:25;;;;;;;2.83;1.10;;;;;;;35.56;40.25;98893.09;5112691;28;20691;-65
2023/07/25 08:41:00;;;;;;;1.83;0.90;;;;;;;35.75;40.13;98892.13;5112400;28;20198;-64
2023/07/25 08:43:29;;;;;;;3.20;1.38;;;;;;;36.07;40.90;98884.84;5109228;28;20201;-65
2023/07/25 08:45:57;;;;;;;1.00;0.95;;;;;;;36.06;40.44;98881.34;5110447;28;20206;-62
2023/07/25 08:48:26;;;;;;;1.17;1.08;;;;;;;36.03;39.66;98876.44;5111082;28;20271;-63
2023/07/25 08:51:00;;;;;;;1.65;1.27;;;;;;;36.13;41.83;98866.09;5111405;28;20652;-63
2023/07/25 08:53:29;;;;;;;1.00;1.00;;;;;;;35.45;41.36;98875.13;5110926;28;20207;-63
2023/07/25 08:55:57;;;;;;;2.70;1.55;;;;;;;35.71;42.06;98864.25;5109079;28;20213;-63
2023/07/25 08:58:25;;;;;;;2.28;1.10;;;;;;;35.96;41.42;98865.03;5108782;28;20259;-63
2023/07/25 09:00:53;;;;;;;0.80;0.80;;;;;;;35.97;42.89;98869.31;5110979;28;20203;-63
2023/07/25 09:03:20;;;;;;;1.40;1.30;;;;;;;36.12;41.53;98869.00;5109949;28;20230;-64
2023/07/25 09:05:48;;;;;;;1.33;1.15;;;;;;;36.38;40.79;98862.53;5111273;28;20678;-64
2023/07/25 09:08:16;;;;;;;1.35;1.25;;;;;;;36.71;39.85;98868.25;5110261;28;20283;-64
2023/07/25 09:10:45;;;;;;;1.80;1.70;;;;;;;36.61;38.74;98857.31;5110291;27;20237;-63
2023/07/25 09:13:12;;;;;;;0.90;0.90;;;;;;;36.61;38.62;98854.66;5109787;28;20616;-63
2023/07/25 09:15:39;;;;;;;0.90;0.90;;;;;;;36.33;38.29;98858.66;5107772;27;20207;-63
2023/07/25 09:18:06;;;;;;;1.13;1.10;;;;;;;36.31;39.15;98852.75;5109450;28;20633;-63
2023/07/25 09:20:32;;;;;;;1.10;1.08;;;;;;;36.45;39.27;98855.25;5108241;28;20685;-63
2023/07/25 09:22:59;;;;;;;0.95;0.93;;;;;;;36.54;38.34;98859.25;5109781;28;20763;-63
2023/07/25 09:25:28;;;;;;;1.73;1.30;;;;;;;36.65;39.80;98840.59;5105707;28;20331;-66
2023/07/25 09:27:55;;;;;;;1.70;1.10;;;;;;;36.93;38.73;98842.66;5109036;28;20309;-65
2023/07/25 09:30:27;;;;;;;2.47;1.35;;;;;;;37.03;38.67;98836.78;5106134;28;20289;-65
2023/07/25 09:32:55;;;;;;;1.35;1.15;;;;;;;36.81;38.92;98839.13;5109106;28;20209;-65
2023/07/25 09:35:24;;;;;;;1.30;1.13;;;;;;;36.87;38.81;98834.75;5109605;28;20199;-65
2023/07/25 09:37:55;;;;;;;1.30;1.20;;;;;;;36.85;37.93;98834.97;5110266;28;20299;-66
2023/07/25 09:40:22;;;;;;;1.48;1.20;;;;;;;36.85;38.34;98832.28;5111051;28;20199;-66
2023/07/25 09:42:51;;;;;;;1.65;1.20;;;;;;;37.03;38.88;98816.19;5109378;28;20293;-66
2023/07/25 09:45:19;;;;;;;1.33;1.23;;;;;;;36.86;38.16;98820.56;5110301;28;20248;-65
2023/07/25 09:47:51;;;;;;;0.98;0.95;;;;;;;36.89;38.37;98824.63;5108174;27;20218;-66
2023/07/25 09:50:18;;;;;;;0.93;0.80;;;;;;;36.72;38.03;98824.47;5107775;28;20233;-66
2023/07/25 09:52:45;;;;;;;1.55;1.45;;;;;;;36.92;38.43;98829.53;5109316;28;20194;-66
2023/07/25 09:55:12;;;;;;;2.45;1.27;;;;;;;37.09;38.39;98826.00;5108746;28;20222;-66
2023/07/25 09:57:39;;;;;;;1.10;1.00;;;;;;;37.20;38.54;98817.16;5107800;28;20198;-66
2023/07/25 10:00:09;;;;;;;1.02;1.02;;;;;;;37.24;39.45;98807.63;5109062;28;20210;-66
2023/07/25 10:02:38;;;;;;;1.10;0.98;;;;;;;37.16;41.40;98807.97;5110213;28;20222;-65
2023/07/25 10:05:05;;;;;;;1.27;1.17;;;;;;;37.20;38.67;98811.81;5108480;28;20203;-65
2023/07/25 10:07:34;;;;;;;0.57;0.57;;;;;;;37.11;38.05;98812.38;5109063;28;20207;-65
2023/07/25 10:10:02;;;;;;;1.75;1.40;;;;;;;37.25;37.76;98803.94;5107741;28;20202;-65
2023/07/25 10:12:29;;;;;;;1.10;1.00;;;;;;;37.16;39.69;98794.59;5109394;28;20203;-64
2023/07/25 10:14:57;;;;;;;1.52;1.33;;;;;;;36.98;38.63;98802.69;5109226;28;20606;-62
2023/07/25 10:17:26;;;;;;;1.38;1.30;;;;;;;36.92;38.91;98792.94;5105716;28;20661;-64
2023/07/25 10:19:54;;;;;;;2.00;1.40;;;;;;;37.01;39.27;98788.91;5107344;28;20211;-63
2023/07/25 10:22:34;;;;;;;1.10;1.10;;;;;;;37.11;38.21;98785.66;5108143;28;20202;-64
2023/07/25 10:25:00;;;;;;;1.15;0.88;;;;;;;37.17;38.85;98785.53;5108639;28;20205;-65
2023/07/25 10:27:27;;;;;;;1.38;1.30;;;;;;;37.45;37.73;98781.38;5107771;28;20222;-64
2023/07/25 10:30:00;;;;;;;1.15;0.95;;;;;;;37.66;37.04;98780.78;5108687;28;20290;-64
2023/07/25 10:32:46;;;;;;;1.92;1.23;;;;;;;37.34;36.59;98775.78;5108304;28;20867;-63
2023/07/25 10:35:13;;;;;;;1.80;1.10;;;;;;;37.29;36.31;98772.97;5108499;28;20438;-64
2023/07/25 10:37:43;;;;;;;2.28;1.20;;;;;;;37.41;37.00;98764.16;5108913;28;20443;-63
2023/07/25 10:40:13;;;;;;;0.73;0.73;;;;;;;37.64;36.73;98769.50;5106258;28;20217;-63
2023/07/25 10:42:49;;;;;;;1.90;1.08;;;;;;;37.74;37.23;98753.69;5108814;28;20232;-63
2023/07/25 10:45:43;;;;;;;1.00;0.90;;;;;;;37.66;37.18;98754.84;5108083;28;20203;-63
2023/07/25 10:48:28;;;;;;;3.40;1.88;;;;;;;37.62;36.65;98744.84;5107533;28;20218;-63
2023/07/25 10:50:55;;;;;;;2.17;1.80;;;;;;;37.80;37.14;98726.78;5109528;28;20206;-63
2023/07/25 10:53:24;;;;;;;1.17;1.10;;;;;;;37.93;37.02;98723.03;5109288;28;20195;-63
2023/07/25 10:56:09;;;;;;;1.35;1.35;;;;;;;37.88;37.28;98717.53;5108902;28;20194;-63
2023/07/25 10:58:37;;;;;;;1.63;1.10;;;;;;;38.03;36.66;98720.53;5107194;28;20206;-63
2023/07/25 11:01:04;;;;;;;1.80;1.20;;;;;;;38.14;35.78;98721.53;5108817;28;20206;-63
2023/07/25 11:03:34;;;;;;;2.22;1.17;;;;;;;38.11;35.07;98717.50;5109208;28;20306;-63
2023/07/25 11:06:38;;;;;;;1.45;0.88;;;;;;;38.12;36.34;98719.13;5108660;28;20202;-63
2023/07/25 11:09:11;;;;;;;4.07;2.08;;;;;;;38.05;34.73;98718.44;5113038;28;20301;-63
2023/07/25 11:11:43;;;;;;;1.58;1.48;;;;;;;38.20;35.57;98709.88;5111647;28;20582;-62
2023/07/25 11:14:12;;;;;;;2.45;1.30;;;;;;;38.49;34.89;98705.31;5112635;28;20285;-62
2023/07/25 11:16:40;;;;;;;1.20;1.10;;;;;;;38.41;34.54;98695.00;5112583;28;20727;-63
2023/07/25 11:19:08;;;;;;;3.05;1.17;;;;;;;38.33;35.80;98697.00;5113034;28;20252;-64
2023/07/25 11:21:37;;;;;;;2.10;1.30;;;;;;;38.27;36.07;98695.28;5111780;28;20682;-62
2023/07/25 11:24:05;;;;;;;1.42;1.20;;;;;;;38.35;34.07;98696.75;5113941;28;20578;-62
2023/07/25 11:26:32;;;;;;;1.48;1.30;;;;;;;38.62;35.30;98686.22;5106486;28;20204;-63
2023/07/25 11:29:03;;;;;;;1.23;1.17;;;;;;;38.66;35.05;98679.34;5111238;27;20690;-63
2023/07/25 11:31:30;;;;;;;1.80;1.45;;;;;;;38.70;34.56;98667.91;5112458;28;20226;-64
2023/07/25 11:33:57;;;;;;;1.48;1.23;;;;;;;38.61;35.02;98668.56;5111666;27;20687;-63
2023/07/25 11:36:25;;;;;;;2.58;0.80;;;;;;;38.45;34.25;98654.13;5110755;28;20211;-63